createdAt,value
2023-04-06T00:01:26.130Z,100499.52
2023-04-06T00:03:54.512Z,100495.91
2023-04-06T00:06:22.985Z,100493.33
2023-04-06T00:08:51.661Z,100488.09
2023-04-06T00:11:20.151Z,100486.80
2023-04-06T00:13:48.639Z,100488.05
2023-04-06T00:16:17.693Z,100481.13
2023-04-06T00:18:46.224Z,100477.56
2023-04-06T00:21:15.757Z,100471.23
2023-04-06T00:23:44.015Z,100469.78
2023-04-06T00:26:12.293Z,100460.11
2023-04-06T00:28:41.306Z,100461.23
2023-04-06T00:31:09.583Z,100457.45
2023-04-06T00:33:37.861Z,100454.84
2023-04-06T00:36:06.876Z,100454.31
2023-04-06T00:38:35.245Z,100455.88
2023-04-06T00:41:05.842Z,100445.23
2023-04-06T00:43:34.579Z,100443.69
2023-04-06T00:46:03.389Z,100436.10
2023-04-06T00:48:32.869Z,100432.58
2023-04-06T00:51:03.128Z,100429.96
2023-04-06T00:53:31.494Z,100426.71
2023-04-06T00:56:01.651Z,100433.02
2023-04-06T00:58:34.604Z,100424.16
2023-04-06T01:01:07.944Z,100421.85
2023-04-06T01:03:37.009Z,100417.03
2023-04-06T01:06:06.424Z,100413.83
2023-04-06T01:08:39.010Z,100413.20
2023-04-06T01:11:16.913Z,100409.70
2023-04-06T01:13:45.585Z,100405.92
2023-04-06T01:16:22.558Z,100398.13
2023-04-06T01:19:14.699Z,100401.05
2023-04-06T01:21:47.484Z,100407.71
2023-04-06T01:24:34.908Z,100393.67
2023-04-06T01:27:31.234Z,100392.78
2023-04-06T01:30:17.566Z,100391.41
2023-04-06T01:33:02.938Z,100388.77
2023-04-06T01:36:07.340Z,100387.05
2023-04-06T01:38:37.044Z,100380.72
2023-04-06T01:41:07.219Z,100378.77
2023-04-06T01:43:57.526Z,100378.41
2023-04-06T01:46:30.224Z,100373.81
2023-04-06T01:48:59.091Z,100369.89
2023-04-06T01:51:38.632Z,100366.59
2023-04-06T01:54:08.598Z,100366.45
2023-04-06T01:56:54.538Z,100360.45
2023-04-06T01:59:31.158Z,100358.80
2023-04-06T02:01:59.735Z,100360.92
2023-04-06T02:04:29.104Z,100353.40
2023-04-06T02:07:05.682Z,100349.88
2023-04-06T02:09:33.978Z,100351.23
2023-04-06T02:12:03.072Z,100351.67
2023-04-06T02:14:34.524Z,100342.50
2023-04-06T02:17:03.126Z,100341.48
2023-04-06T02:19:32.828Z,100334.47
2023-04-06T02:22:01.524Z,100340.96
2023-04-06T02:24:29.890Z,100340.48
2023-04-06T02:26:58.687Z,100335.61
2023-04-06T02:29:27.381Z,100337.21
2023-04-06T02:31:56.019Z,100341.39
2023-04-06T02:34:24.878Z,100330.80
2023-04-06T02:36:53.654Z,100334.21
2023-04-06T02:39:22.141Z,100336.54
2023-04-06T02:41:51.651Z,100331.08
2023-04-06T02:44:24.418Z,100321.76
2023-04-06T02:46:53.643Z,100323.52
2023-04-06T02:49:23.057Z,100330.39
2023-04-06T02:51:52.470Z,100322.65
2023-04-06T02:54:24.728Z,100326.23
2023-04-06T02:56:53.219Z,100323.79
2023-04-06T02:59:22.044Z,100325.38
2023-04-06T03:02:02.268Z,100318.56
2023-04-06T03:04:31.879Z,100327.86
2023-04-06T03:07:02.106Z,100328.77
2023-04-06T03:09:40.033Z,100328.32
2023-04-06T03:12:09.907Z,100328.98
2023-04-06T03:14:57.960Z,100330.79
2023-04-06T03:17:27.509Z,100330.08
2023-04-06T03:20:00.759Z,100333.44
2023-04-06T03:22:31.604Z,100331.37
2023-04-06T03:25:02.230Z,100328.27
2023-04-06T03:27:34.007Z,100325.31
2023-04-06T03:30:03.919Z,100325.89
2023-04-06T03:32:40.197Z,100323.80
2023-04-06T03:35:09.186Z,100330.16
2023-04-06T03:37:37.770Z,100335.14
2023-04-06T03:40:07.659Z,100333.79
2023-04-06T03:42:35.995Z,100340.34
2023-04-06T03:45:10.498Z,100341.53
2023-04-06T03:47:42.006Z,100339.81
2023-04-06T03:50:16.797Z,100339.54
2023-04-06T03:52:46.602Z,100341.77
2023-04-06T03:55:15.481Z,100341.60
2023-04-06T03:57:43.785Z,100342.55
2023-04-06T04:00:13.392Z,100340.80
2023-04-06T04:02:41.640Z,100341.33
2023-04-06T04:05:10.951Z,100344.66
2023-04-06T04:07:39.564Z,100344.16
2023-04-06T04:10:09.907Z,100337.44
2023-04-06T04:12:38.377Z,100340.61
2023-04-06T04:15:08.011Z,100341.45
2023-04-06T04:17:36.926Z,100331.94
2023-04-06T04:20:06.206Z,100330.69
2023-04-06T04:22:34.472Z,100329.27
2023-04-06T04:25:02.857Z,100335.45
2023-04-06T04:27:32.778Z,100335.44
2023-04-06T04:30:01.487Z,100338.02
2023-04-06T04:32:29.819Z,100339.48
2023-04-06T04:34:58.655Z,100343.26
2023-04-06T04:37:38.815Z,100342.30
2023-04-06T04:40:08.032Z,100340.84
2023-04-06T04:42:45.210Z,100337.82
2023-04-06T04:45:20.238Z,100340.84
2023-04-06T04:47:49.405Z,100342.82
2023-04-06T04:50:18.873Z,100340.32
2023-04-06T04:52:48.260Z,100340.12
2023-04-06T04:55:21.153Z,100336.65
2023-04-06T04:57:52.904Z,100335.55
2023-04-06T05:00:24.466Z,100335.44
2023-04-06T05:02:56.768Z,100336.43
2023-04-06T05:05:29.318Z,100336.33
2023-04-06T05:07:58.018Z,100331.91
2023-04-06T05:10:41.344Z,100332.95
2023-04-06T05:13:10.233Z,100331.10
2023-04-06T05:15:39.516Z,100325.95
2023-04-06T05:18:14.582Z,100328.80
2023-04-06T05:20:44.059Z,100338.09
2023-04-06T05:23:13.393Z,100325.10
2023-04-06T05:25:42.085Z,100322.75
2023-04-06T05:28:18.257Z,100319.20
2023-04-06T05:30:47.309Z,100323.08
2023-04-06T05:33:16.449Z,100325.20
2023-04-06T05:36:08.219Z,100325.71
2023-04-06T05:38:39.617Z,100324.70
2023-04-06T05:41:16.404Z,100327.34
2023-04-06T05:43:44.871Z,100322.54
2023-04-06T05:46:15.034Z,100322.81
2023-04-06T05:48:44.304Z,100320.46
2023-04-06T05:51:13.913Z,100316.38
2023-04-06T05:53:48.852Z,100312.52
2023-04-06T05:56:17.656Z,100310.86
2023-04-06T05:58:46.129Z,100305.73
2023-04-06T06:01:16.966Z,100310.56
2023-04-06T06:03:47.910Z,100304.67
2023-04-06T06:06:16.598Z,100303.34
2023-04-06T06:09:01.987Z,100299.34
2023-04-06T06:11:31.283Z,100294.25
2023-04-06T06:14:00.385Z,100293.77
2023-04-06T06:16:28.911Z,100299.27
2023-04-06T06:18:57.558Z,100293.04
2023-04-06T06:21:26.917Z,100300.69
2023-04-06T06:23:55.870Z,100297.77
2023-04-06T06:26:24.651Z,100296.54
2023-04-06T06:28:53.038Z,100298.16
2023-04-06T06:31:23.960Z,100291.44
2023-04-06T06:33:52.709Z,100295.26
2023-04-06T06:36:21.776Z,100297.23
2023-04-06T06:38:50.591Z,100294.64
2023-04-06T06:41:20.502Z,100292.17
2023-04-06T06:43:49.592Z,100294.69
2023-04-06T06:46:20.101Z,100295.98
2023-04-06T06:48:48.953Z,100297.61
2023-04-06T06:51:17.316Z,100289.69
2023-04-06T06:53:45.914Z,100291.10
2023-04-06T06:56:14.389Z,100285.36
2023-04-06T06:58:43.479Z,100288.00
2023-04-06T07:01:12.010Z,100290.55
2023-04-06T07:03:40.561Z,100284.63
2023-04-06T07:06:09.244Z,100293.39
2023-04-06T07:08:37.732Z,100294.11
2023-04-06T07:11:06.138Z,100303.73
2023-04-06T07:13:34.621Z,100308.30
2023-04-06T07:16:03.297Z,100308.85
2023-04-06T07:18:34.081Z,100308.95
2023-04-06T07:21:04.713Z,100308.23
2023-04-06T07:23:33.166Z,100311.25
2023-04-06T07:26:01.771Z,100315.02
2023-04-06T07:28:30.139Z,100317.20
2023-04-06T07:30:58.720Z,100315.45
2023-04-06T07:33:31.116Z,100315.20
2023-04-06T07:36:00.479Z,100313.74
2023-04-06T07:38:29.089Z,100306.33
2023-04-06T07:40:58.071Z,100320.94
2023-04-06T07:43:26.575Z,100309.93
2023-04-06T07:45:56.038Z,100315.09
2023-04-06T07:48:24.781Z,100311.70
2023-04-06T07:50:53.574Z,100309.82
2023-04-06T07:53:25.253Z,100308.23
2023-04-06T07:55:53.520Z,100307.45
2023-04-06T07:58:22.017Z,100306.20
2023-04-06T08:00:50.287Z,100301.79
2023-04-06T08:03:22.014Z,100303.55
2023-04-06T08:05:50.533Z,100306.19
2023-04-06T08:08:19.022Z,100309.23
2023-04-06T08:10:47.304Z,100311.17
2023-04-06T08:13:16.831Z,100317.67
2023-04-06T08:15:45.548Z,100316.15
2023-04-06T08:18:14.600Z,100322.04
2023-04-06T08:20:43.185Z,100319.19
2023-04-06T08:23:12.300Z,100323.82
2023-04-06T08:25:40.675Z,100327.08
2023-04-06T08:28:10.523Z,100323.79
2023-04-06T08:30:41.757Z,100330.27
2023-04-06T08:33:11.339Z,100328.20
2023-04-06T08:35:39.974Z,100338.00
2023-04-06T08:38:08.944Z,100335.62
2023-04-06T08:40:41.099Z,100338.02
2023-04-06T08:43:15.860Z,100340.34
2023-04-06T08:45:44.648Z,100338.20
2023-04-06T08:48:13.677Z,100343.86
2023-04-06T08:50:42.701Z,100342.75
2023-04-06T08:53:13.128Z,100345.11
2023-04-06T08:55:44.731Z,100341.27
2023-04-06T08:58:17.279Z,100341.71
2023-04-06T09:00:51.764Z,100338.95
2023-04-06T09:03:21.597Z,100345.29
2023-04-06T09:05:51.272Z,100342.35
2023-04-06T09:08:19.539Z,100342.29
2023-04-06T09:10:49.794Z,100339.17
2023-04-06T09:13:18.128Z,100339.55
2023-04-06T09:15:47.395Z,100335.69
2023-04-06T09:18:32.320Z,100336.11
2023-04-06T09:21:06.438Z,100334.84
2023-04-06T09:23:34.690Z,100336.13
2023-04-06T09:26:16.830Z,100337.15
2023-04-06T09:28:51.460Z,100340.94
2023-04-06T09:31:31.238Z,100338.12
2023-04-06T09:34:01.427Z,100341.05
2023-04-06T09:36:42.492Z,100349.48
2023-04-06T09:39:11.285Z,100351.20
2023-04-06T09:41:46.600Z,100345.20
2023-04-06T09:44:27.629Z,100359.61
2023-04-06T09:47:01.845Z,100353.58
2023-04-06T09:49:36.569Z,100352.55
2023-04-06T09:52:08.399Z,100358.44
2023-04-06T09:54:42.573Z,100363.43
2023-04-06T09:57:30.150Z,100365.28
2023-04-06T10:00:12.643Z,100368.54
2023-04-06T10:02:54.317Z,100374.02
2023-04-06T10:05:38.892Z,100374.09
2023-04-06T10:08:10.387Z,100372.98
2023-04-06T10:10:39.459Z,100374.73
2023-04-06T10:13:08.868Z,100379.25
2023-04-06T10:15:40.009Z,100375.55
2023-04-06T10:18:09.792Z,100376.85
2023-04-06T10:20:44.848Z,100383.35
2023-04-06T10:23:37.596Z,100382.30
2023-04-06T10:26:06.379Z,100382.02
2023-04-06T10:28:37.556Z,100389.82
2023-04-06T10:31:07.224Z,100389.41
2023-04-06T10:33:36.268Z,100391.20
2023-04-06T10:36:14.952Z,100394.50
2023-04-06T10:38:43.877Z,100395.78
2023-04-06T10:41:13.375Z,100398.60
2023-04-06T10:43:43.251Z,100397.39
2023-04-06T10:46:13.075Z,100394.34
2023-04-06T10:48:50.827Z,100394.84
2023-04-06T10:51:21.488Z,100396.61
2023-04-06T10:53:50.618Z,100396.85
2023-04-06T10:56:23.643Z,100394.44
2023-04-06T10:58:59.320Z,100402.92
2023-04-06T11:01:28.793Z,100403.11
2023-04-06T11:04:01.410Z,100400.14
2023-04-06T11:06:34.784Z,100399.91
2023-04-06T11:09:03.077Z,100404.06
2023-04-06T11:11:37.629Z,100403.52
2023-04-06T11:14:06.075Z,100406.08
2023-04-06T11:16:34.905Z,100410.45
2023-04-06T11:19:07.151Z,100407.48
2023-04-06T11:21:50.212Z,100409.21
2023-04-06T11:24:24.737Z,100406.52
2023-04-06T11:26:57.497Z,100407.71
2023-04-06T11:29:28.544Z,100408.70
2023-04-06T11:32:02.045Z,100410.87
2023-04-06T11:34:32.171Z,100409.18
2023-04-06T11:37:03.801Z,100413.77
2023-04-06T11:39:33.824Z,100411.59
2023-04-06T11:42:05.515Z,100414.83
2023-04-06T11:44:47.285Z,100414.80
2023-04-06T11:47:16.517Z,100421.34
2023-04-06T11:49:53.960Z,100422.33
2023-04-06T11:52:27.052Z,100429.81
2023-04-06T11:54:57.966Z,100432.11
2023-04-06T11:57:26.897Z,100439.57
2023-04-06T11:59:56.533Z,100438.35
2023-04-06T12:02:25.295Z,100445.62
2023-04-06T12:04:54.158Z,100444.90
2023-04-06T12:07:22.542Z,100445.02
2023-04-06T12:09:51.274Z,100447.06
2023-04-06T12:12:19.654Z,100446.84
2023-04-06T12:14:48.037Z,100449.70
2023-04-06T12:17:16.420Z,100456.21
2023-04-06T12:19:44.810Z,100459.84
2023-04-06T12:22:14.008Z,100458.88
2023-04-06T12:24:42.612Z,100464.52
2023-04-06T12:27:12.684Z,100460.59
2023-04-06T12:29:41.111Z,100462.50
2023-04-06T12:32:11.960Z,100466.89
2023-04-06T12:34:41.218Z,100468.52
2023-04-06T12:37:09.740Z,100475.44
2023-04-06T12:39:41.807Z,100474.23
2023-04-06T12:42:10.500Z,100473.64
2023-04-06T12:44:39.394Z,100474.82
2023-04-06T12:47:08.731Z,100475.56
2023-04-06T12:49:47.218Z,100476.65
2023-04-06T12:52:16.122Z,100474.59
2023-04-06T12:54:44.612Z,100475.63
2023-04-06T12:57:12.985Z,100479.63
2023-04-06T12:59:45.670Z,100476.91
2023-04-06T13:02:14.301Z,100481.36
2023-04-06T13:04:43.053Z,100479.11
2023-04-06T13:07:11.640Z,100479.92
2023-04-06T13:09:39.939Z,100485.88
2023-04-06T13:12:08.724Z,100486.48
2023-04-06T13:14:37.301Z,100488.18
2023-04-06T13:17:06.020Z,100482.85
2023-04-06T13:19:34.701Z,100488.11
2023-04-06T13:22:03.082Z,100491.38
2023-04-06T13:24:31.458Z,100497.27
2023-04-06T13:27:00.053Z,100495.63
2023-04-06T13:29:28.652Z,100498.06
2023-04-06T13:31:57.285Z,100494.20
2023-04-06T13:34:26.241Z,100490.63
2023-04-06T13:36:54.638Z,100494.17
2023-04-06T13:39:23.109Z,100492.40
2023-04-06T13:41:51.589Z,100490.33
2023-04-06T13:44:19.968Z,100490.00
2023-04-06T13:46:48.869Z,100490.05
2023-04-06T13:49:17.458Z,100489.97
2023-04-06T13:51:46.137Z,100491.63
2023-04-06T13:54:14.631Z,100497.39
2023-04-06T13:56:42.814Z,100499.22
2023-04-06T13:59:11.362Z,100504.88
2023-04-06T14:01:40.017Z,100501.79
2023-04-06T14:04:08.674Z,100506.39
2023-04-06T14:06:38.604Z,100508.75
2023-04-06T14:09:06.879Z,100509.54
2023-04-06T14:11:35.879Z,100507.84
2023-04-06T14:14:04.378Z,100506.88
2023-04-06T14:16:33.475Z,100507.80
2023-04-06T14:19:02.164Z,100502.77
2023-04-06T14:21:30.646Z,100511.68
2023-04-06T14:23:59.870Z,100509.06
2023-04-06T14:26:28.794Z,100507.02
2023-04-06T14:28:57.436Z,100512.48
2023-04-06T14:31:26.003Z,100510.59
2023-04-06T14:33:54.733Z,100510.16
2023-04-06T14:36:24.004Z,100514.70
2023-04-06T14:38:53.371Z,100516.77
2023-04-06T14:41:25.036Z,100519.45
2023-04-06T14:43:56.658Z,100522.98
2023-04-06T14:46:28.744Z,100524.45
2023-04-06T14:48:58.774Z,100533.85
2023-04-06T14:51:30.499Z,100536.55
2023-04-06T14:53:58.783Z,100539.94
2023-04-06T14:56:27.273Z,100546.27
2023-04-06T14:58:59.357Z,100548.45
2023-04-06T15:01:28.834Z,100555.77
2023-04-06T15:03:57.173Z,100560.59
2023-04-06T15:06:26.944Z,100560.02
2023-04-06T15:08:55.122Z,100562.05
2023-04-06T15:11:23.544Z,100557.07
2023-04-06T15:13:52.710Z,100561.37
2023-04-06T15:16:21.335Z,100564.27
2023-04-06T15:18:50.094Z,100567.58
2023-04-06T15:21:21.243Z,100567.95
2023-04-06T15:23:50.749Z,100574.23
2023-04-06T15:26:19.144Z,100579.14
2023-04-06T15:28:47.853Z,100583.18
2023-04-06T15:31:32.995Z,100581.09
2023-04-06T15:34:09.327Z,100584.61
2023-04-06T15:36:38.053Z,100584.93
2023-04-06T15:39:15.083Z,100584.71
2023-04-06T15:41:43.689Z,100587.27
2023-04-06T15:44:13.552Z,100592.16
2023-04-06T15:46:42.745Z,100595.96
2023-04-06T15:49:11.847Z,100595.94
2023-04-06T15:51:40.651Z,100597.91
2023-04-06T15:54:08.925Z,100602.48
2023-04-06T15:56:37.327Z,100604.32
2023-04-06T15:59:05.903Z,100609.53
2023-04-06T16:01:34.472Z,100611.63
2023-04-06T16:04:09.046Z,100616.86
2023-04-06T16:06:38.063Z,100620.92
2023-04-06T16:09:06.654Z,100619.55
2023-04-06T16:11:37.159Z,100621.27
2023-04-06T16:14:05.632Z,100628.39
2023-04-06T16:16:34.672Z,100627.40
2023-04-06T16:19:06.200Z,100631.20
2023-04-06T16:21:34.973Z,100628.95
2023-04-06T16:24:04.765Z,100632.84
2023-04-06T16:26:33.440Z,100633.98
2023-04-06T16:29:02.159Z,100636.38
2023-04-06T16:31:30.921Z,100638.86
2023-04-06T16:33:59.764Z,100641.77
2023-04-06T16:36:30.112Z,100642.84
2023-04-06T16:38:59.827Z,100646.76
2023-04-06T16:41:29.117Z,100649.58
2023-04-06T16:43:58.464Z,100651.80
2023-04-06T16:46:34.229Z,100657.42
2023-04-06T16:49:04.396Z,100658.91
2023-04-06T16:51:33.299Z,100664.36
2023-04-06T16:54:02.519Z,100669.08
2023-04-06T16:56:34.584Z,100668.57
2023-04-06T16:59:03.269Z,100675.41
2023-04-06T17:01:31.769Z,100680.02
2023-04-06T17:04:00.902Z,100684.13
2023-04-06T17:06:29.435Z,100683.88
2023-04-06T17:09:00.020Z,100682.90
2023-04-06T17:11:32.806Z,100687.67
2023-04-06T17:14:09.218Z,100688.27
2023-04-06T17:16:37.873Z,100688.81
2023-04-06T17:19:06.394Z,100696.66
2023-04-06T17:21:37.340Z,100699.65
2023-04-06T17:24:07.043Z,100706.40
2023-04-06T17:26:35.744Z,100709.02
2023-04-06T17:29:04.650Z,100713.67
2023-04-06T17:31:33.024Z,100714.46
2023-04-06T17:34:01.413Z,100711.83
2023-04-06T17:36:29.825Z,100717.38
2023-04-06T17:38:58.077Z,100718.60
2023-04-06T17:41:26.972Z,100719.89
2023-04-06T17:43:55.780Z,100721.95
2023-04-06T17:46:24.916Z,100729.31
2023-04-06T17:48:53.666Z,100729.79
2023-04-06T17:51:22.252Z,100734.45
2023-04-06T17:53:54.812Z,100739.51
2023-04-06T17:56:24.396Z,100744.85
2023-04-06T17:58:56.921Z,100747.52
2023-04-06T18:01:25.871Z,100750.06
2023-04-06T18:03:54.484Z,100754.58
2023-04-06T18:06:25.590Z,100759.60
2023-04-06T18:08:54.966Z,100761.46
2023-04-06T18:11:23.646Z,100767.02
2023-04-06T18:13:52.511Z,100765.21
2023-04-06T18:16:21.759Z,100768.06
2023-04-06T18:18:51.076Z,100774.56
2023-04-06T18:21:19.643Z,100775.48
2023-04-06T18:23:50.494Z,100777.86
2023-04-06T18:26:21.475Z,100776.96
2023-04-06T18:28:50.035Z,100781.12
2023-04-06T18:31:20.103Z,100779.94
2023-04-06T18:33:53.094Z,100783.52
2023-04-06T18:36:22.742Z,100784.33
2023-04-06T18:38:51.327Z,100787.80
2023-04-06T18:41:20.949Z,100789.25
2023-04-06T18:43:49.528Z,100790.70
2023-04-06T18:46:34.145Z,100796.91
2023-04-06T18:49:10.355Z,100794.59
2023-04-06T18:51:41.709Z,100802.27
2023-04-06T18:54:10.187Z,100799.67
2023-04-06T18:56:42.359Z,100799.69
2023-04-06T18:59:12.175Z,100800.83
2023-04-06T19:01:43.978Z,100805.31
2023-04-06T19:04:13.012Z,100805.17
2023-04-06T19:06:47.869Z,100804.80
2023-04-06T19:09:16.476Z,100807.76
2023-04-06T19:11:44.739Z,100809.68
2023-04-06T19:14:16.507Z,100812.91
2023-04-06T19:16:52.392Z,100814.00
2023-04-06T19:19:21.393Z,100814.47
2023-04-06T19:21:50.159Z,100816.52
2023-04-06T19:24:18.444Z,100820.20
2023-04-06T19:26:47.427Z,100821.91
2023-04-06T19:29:15.819Z,100826.02
2023-04-06T19:31:44.264Z,100828.23
2023-04-06T19:34:17.834Z,100831.48
2023-04-06T19:36:46.716Z,100832.76
2023-04-06T19:39:18.585Z,100832.10
2023-04-06T19:41:47.165Z,100833.67
2023-04-06T19:44:15.643Z,100833.61
2023-04-06T19:46:46.635Z,100836.39
2023-04-06T19:49:15.167Z,100836.95
2023-04-06T19:51:45.092Z,100839.19
2023-04-06T19:54:13.588Z,100842.16
2023-04-06T19:56:42.203Z,100844.50
2023-04-06T19:59:13.109Z,100848.48
2023-04-06T20:01:41.590Z,100849.42
2023-04-06T20:04:10.570Z,100847.84
2023-04-06T20:06:39.398Z,100853.85
2023-04-06T20:09:08.148Z,100857.90
2023-04-06T20:11:36.467Z,100863.76
2023-04-06T20:14:05.367Z,100867.55
2023-04-06T20:16:33.972Z,100865.80
2023-04-06T20:19:02.342Z,100870.09
2023-04-06T20:21:35.907Z,100869.67
2023-04-06T20:24:05.583Z,100868.45
2023-04-06T20:26:34.040Z,100868.60
2023-04-06T20:29:02.316Z,100872.25
2023-04-06T20:31:30.633Z,100868.55
2023-04-06T20:33:59.816Z,100874.44
2023-04-06T20:36:30.573Z,100876.77
2023-04-06T20:38:59.238Z,100876.83
2023-04-06T20:41:27.525Z,100882.85
2023-04-06T20:43:56.720Z,100884.84
2023-04-06T20:46:25.584Z,100886.19
2023-04-06T20:48:54.523Z,100885.73
2023-04-06T20:51:26.181Z,100885.21
2023-04-06T20:53:54.882Z,100889.75
2023-04-06T20:56:23.764Z,100886.77
2023-04-06T20:58:52.452Z,100890.65
2023-04-06T21:01:21.014Z,100894.96
2023-04-06T21:03:49.783Z,100895.38
2023-04-06T21:06:18.220Z,100904.16
2023-04-06T21:08:46.812Z,100905.04
2023-04-06T21:11:15.302Z,100910.64
2023-04-06T21:13:44.197Z,100909.05
2023-04-06T21:16:12.910Z,100908.52
2023-04-06T21:18:41.792Z,100911.98
2023-04-06T21:21:10.682Z,100914.98
2023-04-06T21:23:39.371Z,100914.83
2023-04-06T21:26:08.068Z,100923.27
2023-04-06T21:28:36.247Z,100924.11
2023-04-06T21:31:08.789Z,100923.17
2023-04-06T21:33:37.234Z,100921.15
2023-04-06T21:36:07.547Z,100926.02
2023-04-06T21:38:35.816Z,100928.45
2023-04-06T21:41:03.992Z,100927.48
2023-04-06T21:43:32.989Z,100924.58
2023-04-06T21:46:01.991Z,100924.05
2023-04-06T21:48:30.270Z,100923.86
2023-04-06T21:50:58.978Z,100925.87
2023-04-06T21:53:27.751Z,100927.83
2023-04-06T21:55:56.240Z,100930.07
2023-04-06T21:58:24.422Z,100929.98
2023-04-06T22:00:52.798Z,100931.52
2023-04-06T22:03:21.419Z,100935.02
2023-04-06T22:05:49.981Z,100936.66
2023-04-06T22:08:30.068Z,100939.50
2023-04-06T22:11:08.658Z,100942.13
2023-04-06T22:13:37.679Z,100948.17
2023-04-06T22:16:07.617Z,100948.95
2023-04-06T22:18:38.803Z,100947.67
2023-04-06T22:21:09.050Z,100948.64
2023-04-06T22:23:42.553Z,100942.54
2023-04-06T22:26:12.157Z,100945.93
2023-04-06T22:28:40.656Z,100943.09
2023-04-06T22:31:09.414Z,100941.90
2023-04-06T22:33:37.854Z,100938.39
2023-04-06T22:36:12.091Z,100936.92
2023-04-06T22:38:40.864Z,100933.48
2023-04-06T22:41:09.240Z,100936.63
2023-04-06T22:43:38.015Z,100937.75
2023-04-06T22:46:07.119Z,100936.91
2023-04-06T22:48:35.926Z,100938.38
2023-04-06T22:51:05.422Z,100935.21
2023-04-06T22:53:33.907Z,100940.55
2023-04-06T22:56:02.498Z,100941.27
2023-04-06T22:58:31.085Z,100942.34
2023-04-06T23:00:59.423Z,100945.39
2023-04-06T23:03:28.008Z,100942.76
2023-04-06T23:05:56.751Z,100939.27
2023-04-06T23:08:25.344Z,100942.96
2023-04-06T23:10:53.523Z,100945.42
2023-04-06T23:13:22.121Z,100950.90
2023-04-06T23:15:50.501Z,100948.67
2023-04-06T23:18:18.982Z,100944.67
2023-04-06T23:20:47.573Z,100946.55
2023-04-06T23:23:16.160Z,100946.79
2023-04-06T23:25:44.763Z,100945.27
2023-04-06T23:28:13.037Z,100946.27
2023-04-06T23:30:41.523Z,100946.36
2023-04-06T23:33:10.054Z,100947.43
2023-04-06T23:35:38.419Z,100945.41
2023-04-06T23:38:06.669Z,100951.17
2023-04-06T23:40:38.272Z,100950.79
2023-04-06T23:43:06.718Z,100951.95
2023-04-06T23:45:35.404Z,100950.48
2023-04-06T23:48:05.009Z,100949.84
2023-04-06T23:50:35.636Z,100943.80
2023-04-06T23:53:04.850Z,100953.27
2023-04-06T23:55:33.258Z,100954.14
2023-04-06T23:58:04.146Z,100949.78
